Hensley, Arkansas
Current Conditions -  °F | °C
As of 2:53 PM on Thursday 23 Oct 2014 (Local Time) from KLIT Reporting Station
Broken Clouds Broken Clouds  
Wind Chill: 66°   Ceiling: 25000
Heat Index: 66°   Visibility: 10mi
Dew Point: 45°   Wind: 0mph
Humidity: 47%   Direction: NA
Pressure: 30.16"   Gusts: NA
Location:  34.51°N, 92.21°W
Report Text: KLIT 231953Z 00000KT 10SM SCT150 BKN250 19/07 A3016 RMK AO2 SLP213 T01890072
Loading
Personal Weather Stations






























Interactive Weather Map
Tropical Storm Tracking
New forecast layout! Learn more

10-Day Weather Forecast

Advertisements
Track Severe Weather on mobile